Time;durP1;ratioP1;P1;durP2;ratioP2;P2;SDS_P1;SDS_P2;PMS_P1;PMS_P2;Temp;Humidity;BMP_temperature;BMP_pressure;BME280_temperature;BME280_humidity;BME280_pressure;Samples;Min_cycle;Max_cycle;Signal;HPM_P1;HPM_P2
2022/10/11 00:00:17;;;;;;;;;;;;;;;13.74;100.00;98568.59;1693475;82;20783;-88
2022/10/11 00:02:45;;;;;;;;;;;;;;;13.81;100.00;98564.48;1678243;82;20153;-89
2022/10/11 00:05:11;;;;;;;;;;;;;;;13.86;100.00;98565.41;1696964;82;21714;-88
2022/10/11 00:07:39;;;;;;;;;;;;;;;13.89;100.00;98569.61;1691171;83;20296;-88
2022/10/11 00:10:05;;;;;;;;;;;;;;;13.90;100.00;98572.12;1719365;81;20306;-88
2022/10/11 00:12:33;;;;;;;;;;;;;;;13.94;100.00;98572.70;1686299;82;25242;-88
2022/10/11 00:14:59;;;;;;;;;;;;;;;13.96;100.00;98575.58;1671641;82;22040;-84
2022/10/11 00:17:25;;;;;;;;;;;;;;;13.98;100.00;98572.80;1667863;83;26675;-83
2022/10/11 00:19:51;;;;;;;;;;;;;;;13.99;100.00;98575.79;1674357;83;20238;-83
2022/10/11 00:22:17;;;;;;;;;;;;;;;13.97;100.00;98575.06;1669620;83;20761;-89
2022/10/11 00:24:42;;;;;;;;;;;;;;;13.93;100.00;98579.75;1697664;83;20462;-83
2022/10/11 00:27:08;;;;;;;;;;;;;;;13.88;100.00;98587.19;1693753;80;20242;-88
2022/10/11 00:29:36;;;;;;;;;;;;;;;13.79;100.00;98595.36;1686595;82;21259;-88
2022/10/11 00:32:04;;;;;;;;;;;;;;;13.71;100.00;98592.48;1693733;82;25575;-89
2022/10/11 00:34:30;;;;;;;;;;;;;;;13.71;100.00;98589.86;1726058;80;20234;-84
2022/10/11 00:36:56;;;;;;;;;;;;;;;13.71;100.00;98584.59;1721568;81;20246;-83
2022/10/11 00:39:21;;;;;;;;;;;;;;;13.71;100.00;98590.33;1718888;81;20219;-84
2022/10/11 00:41:52;;;;;;;;;;;;;;;13.53;100.00;98583.42;1718726;81;21082;-87
2022/10/11 00:44:20;;;;;;;;;;;;;;;13.46;100.00;98585.36;1725513;81;24659;-88
2022/10/11 00:46:50;;;;;;;;;;;;;;;13.52;100.00;98587.52;1723959;80;21304;-83
2022/10/11 00:49:19;;;;;;;;;;;;;;;13.56;100.00;98589.77;1715290;80;25540;-83
2022/10/11 00:51:54;;;;;;;;;;;;;;;13.61;100.00;98591.55;1724923;80;22029;-82
2022/10/11 00:54:22;;;;;;;;;;;;;;;13.65;100.00;98590.34;1689922;83;26072;-83
2022/10/11 00:56:51;;;;;;;;;;;;;;;13.63;100.00;98580.45;1626485;85;20858;-85
2022/10/11 00:59:19;;;;;;;;;;;;;;;13.63;100.00;98584.39;1689244;83;20314;-83
2022/10/11 01:01:58;;;;;;;;;;;;;;;13.61;100.00;98586.30;1664496;83;24998;-89
2022/10/11 01:04:24;;;;;;;;;;;;;;;13.58;100.00;98593.09;1691851;82;22288;-87
2022/10/11 01:06:52;;;;;;;;;;;;;;;13.53;100.00;98592.63;1689407;82;21019;-90
2022/10/11 01:09:20;;;;;;;;;;;;;;;13.50;100.00;98592.88;1716414;81;25110;-85
2022/10/11 01:11:47;;;;;;;;;;;;;;;13.51;100.00;98590.62;1733299;79;20456;-90
2022/10/11 01:14:26;;;;;;;;;;;;;;;13.50;100.00;98598.14;1694749;82;25628;-85
2022/10/11 01:17:09;;;;;;;;;;;;;;;13.49;100.00;98595.62;1688423;82;21949;-83
2022/10/11 01:19:53;;;;;;;;;;;;;;;13.48;100.00;98602.67;1730708;80;26754;-87
2022/10/11 01:22:24;;;;;;;;;;;;;;;13.45;100.00;98602.09;1691088;82;24523;-84
2022/10/11 01:24:55;;;;;;;;;;;;;;;13.44;100.00;98608.30;1690352;82;20290;-85
2022/10/11 01:27:28;;;;;;;;;;;;;;;13.40;100.00;98607.72;1690370;83;24997;-88
2022/10/11 01:30:14;;;;;;;;;;;;;;;13.34;100.00;98608.19;1660456;83;21969;-87
2022/10/11 01:32:45;;;;;;;;;;;;;;;13.29;100.00;98611.19;1688316;82;26726;-87
2022/10/11 01:35:13;;;;;;;;;;;;;;;13.25;100.00;98612.39;1684474;83;24420;-88
2022/10/11 01:37:58;;;;;;;;;;;;;;;13.22;100.00;98603.88;1685130;82;20201;-89
2022/10/11 01:40:26;;;;;;;;;;;;;;;13.19;100.00;98612.02;1675768;83;24784;-87
2022/10/11 01:42:53;;;;;;;;;;;;;;;13.15;100.00;98611.88;1684908;82;22047;-87
2022/10/11 01:45:20;;;;;;;;;;;;;;;13.11;100.00;98615.67;1698473;82;26001;-87
2022/10/11 01:47:52;;;;;;;;;;;;;;;13.08;100.00;98615.92;1687088;82;25283;-89
2022/10/11 01:50:32;;;;;;;;;;;;;;;13.04;100.00;98616.61;1673071;83;20212;-85
2022/10/11 01:52:59;;;;;;;;;;;;;;;12.96;100.00;98612.45;1687486;83;24880;-85
2022/10/11 01:55:32;;;;;;;;;;;;;;;12.88;100.00;98614.80;1691990;82;22016;-85
2022/10/11 01:58:06;;;;;;;;;;;;;;;12.92;100.00;98617.58;1696040;81;26088;-83
2022/10/11 02:00:50;;;;;;;;;;;;;;;12.93;100.00;98617.91;1682015;83;24828;-88
2022/10/11 02:03:18;;;;;;;;;;;;;;;12.94;100.00;98621.75;1696255;81;20189;-83
2022/10/11 02:05:55;;;;;;;;;;;;;;;12.95;100.00;98623.42;1685966;82;25075;-88
2022/10/11 02:08:23;;;;;;;;;;;;;;;12.94;100.00;98623.53;1691895;82;22337;-83
2022/10/11 02:10:50;;;;;;;;;;;;;;;12.90;100.00;98629.51;1698932;81;26065;-88
2022/10/11 02:13:23;;;;;;;;;;;;;;;12.92;100.00;98621.05;1674275;83;24576;-88
2022/10/11 02:15:51;;;;;;;;;;;;;;;12.93;100.00;98621.86;1670479;82;20274;-86
2022/10/11 02:18:19;;;;;;;;;;;;;;;12.92;100.00;98622.36;1681202;82;25651;-83
2022/10/11 02:20:46;;;;;;;;;;;;;;;12.95;100.00;98619.95;1688748;82;21956;-89
2022/10/11 02:23:20;;;;;;;;;;;;;;;12.95;100.00;98618.17;1657974;84;25513;-85
2022/10/11 02:25:46;;;;;;;;;;;;;;;12.95;100.00;98614.70;1668372;84;24861;-88
2022/10/11 02:28:14;;;;;;;;;;;;;;;12.91;100.00;98611.96;1720806;81;20208;-83
2022/10/11 02:30:41;;;;;;;;;;;;;;;12.90;100.00;98612.44;1728258;80;25234;-89
2022/10/11 02:33:09;;;;;;;;;;;;;;;12.90;100.00;98618.16;1729521;80;21422;-86
2022/10/11 02:35:37;;;;;;;;;;;;;;;12.87;100.00;98618.41;1724798;81;26897;-88
2022/10/11 02:38:23;;;;;;;;;;;;;;;12.87;100.00;98619.72;1710278;80;24444;-89
2022/10/11 02:40:53;;;;;;;;;;;;;;;12.84;100.00;98619.46;1723261;81;20218;-88
2022/10/11 02:43:23;;;;;;;;;;;;;;;12.86;100.00;98624.61;1724226;80;25033;-87
2022/10/11 02:46:00;;;;;;;;;;;;;;;12.89;100.00;98625.20;1722527;80;22146;-89
2022/10/11 02:48:28;;;;;;;;;;;;;;;12.94;100.00;98619.59;1693665;82;26017;-89
2022/10/11 02:50:55;;;;;;;;;;;;;;;12.94;100.00;98619.59;1698645;82;25343;-83
2022/10/11 02:53:21;;;;;;;;;;;;;;;12.95;100.00;98624.73;1699450;82;20208;-85
2022/10/11 02:55:48;;;;;;;;;;;;;;;12.97;100.00;98620.69;1686939;82;24771;-84
2022/10/11 02:58:14;;;;;;;;;;;;;;;12.94;100.00;98621.75;1677278;82;22796;-84
2022/10/11 03:00:40;;;;;;;;;;;;;;;12.95;100.00;98624.73;1691116;82;21870;-84
2022/10/11 03:03:05;;;;;;;;;;;;;;;12.92;100.00;98617.11;1696112;83;20262;-89
2022/10/11 03:05:36;;;;;;;;;;;;;;;12.92;100.00;98618.89;1717346;82;20269;-84
2022/10/11 03:07:59;;;;;;;;;;;;;;;12.84;100.00;98619.94;1716514;80;24856;-84
2022/10/11 03:10:25;;;;;;;;;;;;;;;12.82;100.00;98621.87;1724463;81;20249;-86
2022/10/11 03:12:54;;;;;;;;;;;;;;;12.76;100.00;98625.80;1725506;80;21213;-90
2022/10/11 03:15:19;;;;;;;;;;;;;;;12.71;100.00;98618.70;1696922;83;24676;-88
2022/10/11 03:17:45;;;;;;;;;;;;;;;12.70;100.00;98619.69;1678692;83;20308;-88
2022/10/11 03:20:13;;;;;;;;;;;;;;;12.68;100.00;98622.89;1653990;83;21425;-89
2022/10/11 03:22:39;;;;;;;;;;;;;;;12.68;100.00;98625.52;1692781;82;22769;-83
2022/10/11 03:25:05;;;;;;;;;;;;;;;12.67;100.00;98626.94;1691850;82;21201;-88
2022/10/11 03:27:32;;;;;;;;;;;;;;;12.70;100.00;98618.38;1689769;82;20272;-89
2022/10/11 03:29:58;;;;;;;;;;;;;;;12.68;100.00;98615.48;1654330;84;20477;-89
2022/10/11 03:32:24;;;;;;;;;;;;;;;12.66;100.00;98617.38;1670000;83;20256;-89
2022/10/11 03:34:51;;;;;;;;;;;;;;;12.71;100.00;98622.64;1682634;82;20818;-86
2022/10/11 03:37:17;;;;;;;;;;;;;;;12.77;100.00;98626.12;1694797;82;26145;-83
2022/10/11 03:39:44;;;;;;;;;;;;;;;12.84;100.00;98628.66;1727204;80;24441;-83
2022/10/11 03:42:11;;;;;;;;;;;;;;;12.89;100.00;98628.30;1709772;81;20242;-90
2022/10/11 03:44:38;;;;;;;;;;;;;;;12.92;100.00;98627.61;1719053;80;24952;-84
2022/10/11 03:47:07;;;;;;;;;;;;;;;12.92;100.00;98635.49;1677366;82;22014;-87
2022/10/11 03:49:33;;;;;;;;;;;;;;;12.86;100.00;98634.64;1651464;83;26210;-89
2022/10/11 03:51:58;;;;;;;;;;;;;;;12.83;100.00;98637.48;1696482;82;20859;-83
2022/10/11 03:54:25;;;;;;;;;;;;;;;12.86;100.00;98642.52;1666498;83;20261;-86
2022/10/11 03:56:51;;;;;;;;;;;;;;;12.89;100.00;98644.06;1692249;82;24786;-88
2022/10/11 03:59:18;;;;;;;;;;;;;;;12.90;100.00;98653.15;1683278;82;22200;-90
2022/10/11 04:01:44;;;;;;;;;;;;;;;12.91;100.00;98652.20;1686063;82;26065;-90
2022/10/11 04:04:10;;;;;;;;;;;;;;;12.89;100.00;98642.27;1701793;82;20245;-86
2022/10/11 04:06:36;;;;;;;;;;;;;;;12.87;100.00;98642.05;1693300;82;20273;-86
2022/10/11 04:12:07;;;;;;;;;;;;;;;12.79;100.00;98647.88;1670883;83;20168;-89
2022/10/11 04:14:33;;;;;;;;;;;;;;;12.75;100.00;98647.75;1681277;83;26069;-87
2022/10/11 04:16:59;;;;;;;;;;;;;;;12.70;100.00;98651.20;1695903;82;20316;-84
2022/10/11 04:19:25;;;;;;;;;;;;;;;12.70;100.00;98651.20;1678835;84;20437;-82
2022/10/11 04:21:51;;;;;;;;;;;;;;;12.68;100.00;98652.25;1683398;82;20231;-82
2022/10/11 04:24:20;;;;;;;;;;;;;;;12.71;100.00;98660.72;1669227;83;22106;-89
2022/10/11 04:27:00;;;;;;;;;;;;;;;12.77;100.00;98658.95;1696811;83;25380;-90
2022/10/11 04:29:33;;;;;;;;;;;;;;;12.80;100.00;98652.17;1686713;82;24400;-90
2022/10/11 04:31:58;;;;;;;;;;;;;;;12.84;100.00;98657.55;1689532;82;20233;-87
2022/10/11 04:34:27;;;;;;;;;;;;;;;12.88;100.00;98660.77;1683775;82;20209;-87
2022/10/11 04:36:55;;;;;;;;;;;;;;;12.90;100.00;98661.03;1687542;82;22452;-85
2022/10/11 04:39:22;;;;;;;;;;;;;;;12.88;100.00;98664.23;1728588;80;26835;-83
2022/10/11 04:41:48;;;;;;;;;;;;;;;12.84;100.00;98665.91;1718183;80;24498;-82
2022/10/11 04:44:14;;;;;;;;;;;;;;;12.87;100.00;98676.20;1726272;80;20324;-83
2022/10/11 04:46:41;;;;;;;;;;;;;;;12.89;100.00;98676.90;1717831;80;20799;-88
2022/10/11 04:49:06;;;;;;;;;;;;;;;12.96;100.00;98677.64;1725610;80;22937;-85
2022/10/11 04:51:32;;;;;;;;;;;;;;;13.00;100.00;98677.77;1719656;80;20907;-87
2022/10/11 04:53:58;;;;;;;;;;;;;;;13.02;100.00;98676.81;1718433;81;20268;-87
2022/10/11 04:56:29;;;;;;;;;;;;;;;12.98;100.00;98679.66;1718589;81;20227;-85
2022/10/11 04:58:58;;;;;;;;;;;;;;;13.04;100.00;98676.23;1662617;82;24792;-87
2022/10/11 05:01:24;;;;;;;;;;;;;;;13.10;100.00;98676.58;1689081;82;22697;-83
2022/10/11 05:03:50;;;;;;;;;;;;;;;13.13;100.00;98680.34;1683107;83;20945;-85
2022/10/11 05:06:16;;;;;;;;;;;;;;;13.14;100.00;98678.08;1694705;82;20242;-87
2022/10/11 05:08:47;;;;;;;;;;;;;;;13.14;100.00;98682.49;1699652;81;20255;-89
2022/10/11 05:11:22;;;;;;;;;;;;;;;13.13;100.00;98693.95;1678453;82;25425;-87
2022/10/11 05:13:48;;;;;;;;;;;;;;;13.11;100.00;98701.07;1696062;82;22047;-85
2022/10/11 05:16:14;;;;;;;;;;;;;;;13.11;100.00;98707.64;1686905;82;21006;-84
2022/10/11 05:18:40;;;;;;;;;;;;;;;13.04;100.00;98705.14;1687231;82;24463;-82
2022/10/11 05:21:07;;;;;;;;;;;;;;;13.02;100.00;98709.66;1688423;82;20279;-85
2022/10/11 05:23:35;;;;;;;;;;;;;;;12.96;100.00;98712.27;1669785;82;24846;-85
2022/10/11 05:26:03;;;;;;;;;;;;;;;12.94;100.00;98716.31;1660962;83;20338;-85
2022/10/11 05:28:29;;;;;;;;;;;;;;;12.91;100.00;98720.50;1698374;82;25999;-85
2022/10/11 05:30:55;;;;;;;;;;;;;;;12.94;100.00;98720.26;1691252;82;25977;-87
2022/10/11 05:33:21;;;;;;;;;;;;;;;12.99;100.00;98723.38;1703149;81;20290;-89
2022/10/11 05:35:47;;;;;;;;;;;;;;;13.03;100.00;98725.79;1690918;82;20576;-88
2022/10/11 05:38:12;;;;;;;;;;;;;;;13.00;100.00;98734.25;1686528;83;22005;-85
2022/10/11 05:40:42;;;;;;;;;;;;;;;12.98;100.00;98734.02;1692871;82;21067;-91
2022/10/11 05:43:07;;;;;;;;;;;;;;;13.00;100.00;98735.56;1719155;80;24559;-84
2022/10/11 05:45:35;;;;;;;;;;;;;;;13.03;100.00;98738.45;1711562;80;20375;-84
2022/10/11 05:48:01;;;;;;;;;;;;;;;13.04;100.00;98744.05;1718168;82;24778;-89
2022/10/11 05:50:34;;;;;;;;;;;;;;;13.05;100.00;98742.26;1713307;80;22591;-89
2022/10/11 05:53:00;;;;;;;;;;;;;;;12.98;100.00;98742.71;1717019;80;25471;-83
2022/10/11 05:55:26;;;;;;;;;;;;;;;12.94;100.00;98742.59;1731784;81;24489;-83
2022/10/11 05:57:56;;;;;;;;;;;;;;;12.92;100.00;98748.45;1716438;81;20277;-82
2022/10/11 06:00:22;;;;;;;;;;;;;;;12.89;100.00;98749.97;1719205;80;24856;-83
2022/10/11 06:02:49;;;;;;;;;;;;;;;12.89;100.00;98750.45;1718027;80;22226;-88
2022/10/11 06:05:20;;;;;;;;;;;;;;;12.97;100.00;98754.20;1669150;81;26219;-84
2022/10/11 06:07:45;;;;;;;;;;;;;;;13.03;100.00;98750.28;1688748;82;24439;-84
2022/10/11 06:10:11;;;;;;;;;;;;;;;13.08;100.00;98748.61;1682721;83;20791;-90
2022/10/11 06:12:47;;;;;;;;;;;;;;;13.09;100.00;98756.36;1682142;82;24951;-90
2022/10/11 06:17:52;;;;;;;;;;;;;;;13.13;100.00;98760.48;1679269;83;26078;-84
2022/10/11 06:20:18;;;;;;;;;;;;;;;13.14;100.00;98766.11;1698776;81;24612;-86
2022/10/11 06:22:43;;;;;;;;;;;;;;;13.12;100.00;98776.36;1698754;82;20878;-86
2022/10/11 06:25:10;;;;;;;;;;;;;;;13.08;100.00;98775.73;1693328;83;24780;-88
2022/10/11 06:27:36;;;;;;;;;;;;;;;13.06;100.00;98780.72;1677797;82;22734;-86
2022/10/11 06:30:02;;;;;;;;;;;;;;;13.05;100.00;98783.83;1688043;82;21662;-86
2022/10/11 06:32:33;;;;;;;;;;;;;;;13.02;100.00;98790.63;1692199;82;24437;-86
2022/10/11 06:34:59;;;;;;;;;;;;;;;12.95;100.00;98790.24;1680548;83;20221;-86
2022/10/11 06:37:36;;;;;;;;;;;;;;;12.93;100.00;98792.61;1691867;82;24849;-91
2022/10/11 06:40:03;;;;;;;;;;;;;;;12.90;100.00;98792.38;1677017;83;22138;-90
2022/10/11 06:42:29;;;;;;;;;;;;;;;12.91;100.00;98799.31;1675993;82;26127;-88
2022/10/11 06:44:55;;;;;;;;;;;;;;;12.92;100.00;98798.36;1676956;83;24514;-86
2022/10/11 06:47:21;;;;;;;;;;;;;;;12.90;100.00;98805.50;1686523;82;20317;-88
2022/10/11 06:49:47;;;;;;;;;;;;;;;12.92;100.00;98812.81;1670245;83;20783;-85
2022/10/11 06:52:13;;;;;;;;;;;;;;;12.95;100.00;98813.05;1690558;83;20282;-89
2022/10/11 06:54:38;;;;;;;;;;;;;;;12.95;100.00;98816.52;1689600;83;21679;-88
2022/10/11 06:57:04;;;;;;;;;;;;;;;12.97;100.00;98826.45;1686232;82;20318;-83
2022/10/11 06:59:30;;;;;;;;;;;;;;;12.99;100.00;98833.72;1675511;83;20272;-85
2022/10/11 07:01:56;;;;;;;;;;;;;;;13.04;100.00;98836.51;1688948;82;20973;-89
2022/10/11 07:04:26;;;;;;;;;;;;;;;13.08;100.00;98837.48;1684443;83;20310;-86
2022/10/11 07:06:52;;;;;;;;;;;;;;;13.11;100.00;98843.81;1670476;83;25997;-87
2022/10/11 07:09:17;;;;;;;;;;;;;;;13.13;100.00;98842.42;1677332;83;20321;-88
2022/10/11 07:11:45;;;;;;;;;;;;;;;13.16;100.00;98846.12;1685300;81;20275;-86
2022/10/11 07:14:10;;;;;;;;;;;;;;;13.19;100.00;98845.44;1662421;84;24281;-83
2022/10/11 07:16:37;;;;;;;;;;;;;;;13.17;100.00;98844.70;1682100;83;20270;-86
2022/10/11 07:19:04;;;;;;;;;;;;;;;13.17;100.00;98847.81;1671073;84;21032;-86
2022/10/11 07:21:30;;;;;;;;;;;;;;;13.17;100.00;98846.49;1700598;82;24430;-86
2022/10/11 07:23:56;;;;;;;;;;;;;;;13.16;100.00;98850.06;1693502;82;20446;-85
2022/10/11 07:26:22;;;;;;;;;;;;;;;13.14;100.00;98843.63;1673828;83;20348;-85
2022/10/11 07:28:48;;;;;;;;;;;;;;;13.18;100.00;98852.12;1682541;82;20439;-85
2022/10/11 07:31:15;;;;;;;;;;;;;;;13.21;100.00;98849.25;1677171;82;20996;-83
2022/10/11 07:33:43;;;;;;;;;;;;;;;13.26;100.00;98853.22;1702844;83;25285;-90
2022/10/11 07:36:11;;;;;;;;;;;;;;;13.35;100.00;98856.50;1679070;83;20276;-86
2022/10/11 07:41:35;;;;;;;;;;;;;;;13.49;100.00;98862.50;1688495;83;22702;-90
2022/10/11 07:44:02;;;;;;;;;;;;;;;13.58;100.00;98871.03;1693113;83;26050;-83
2022/10/11 07:46:34;;;;;;;;;;;;;;;13.66;100.00;98876.06;1697234;82;25326;-88
2022/10/11 07:49:00;;;;;;;;;;;;;;;13.74;100.00;98875.03;1724392;80;20328;-85
2022/10/11 07:51:26;;;;;;;;;;;;;;;13.80;100.00;98878.48;1722736;81;20586;-85
2022/10/11 07:53:58;;;;;;;;;;;;;;;13.86;100.00;98877.65;1719723;81;20233;-88
2022/10/11 07:56:23;;;;;;;;;;;;;;;13.88;100.00;98885.80;1721640;80;26044;-90
2022/10/11 07:58:50;;;;;;;;;;;;;;;13.94;100.00;98887.97;1720475;80;24505;-90
2022/10/11 08:01:18;;;;;;;;;;;;;;;14.00;100.00;98888.81;1723788;80;20227;-88
2022/10/11 08:03:46;;;;;;;;;;;;;;;14.07;100.00;98888.69;1728913;80;25379;-88
2022/10/11 08:06:17;;;;;;;;;;;;;;;14.12;100.00;98891.83;1721476;80;22075;-88
2022/10/11 08:08:43;;;;;;;;;;;;;;;14.14;100.00;98896.95;1714658;80;26052;-88
2022/10/11 08:11:09;;;;;;;;;;;;;;;14.18;100.00;98892.65;1724573;81;20263;-88
2022/10/11 08:13:34;;;;;;;;;;;;;;;14.22;100.00;98893.27;1728233;80;20252;-88
2022/10/11 08:16:05;;;;;;;;;;;;;;;14.22;100.00;98889.32;1715740;81;24961;-88
2022/10/11 08:18:31;;;;;;;;;;;;;;;14.27;100.00;98895.06;1711147;81;22133;-88
2022/10/11 08:20:57;;;;;;;;;;;;;;;14.36;100.00;98896.13;1685626;82;21840;-85
2022/10/11 08:23:22;;;;;;;;;;;;;;;14.41;100.00;98897.95;1695496;83;20911;-85
2022/10/11 08:25:48;;;;;;;;;;;;;;;14.44;100.00;98909.11;1668496;83;20290;-85
2022/10/11 08:28:16;;;;;;;;;;;;;;;14.45;100.00;98908.64;1684337;83;20330;-85
2022/10/11 08:30:52;;;;;;;;;;;;;;;14.37;100.00;98910.53;1691838;82;22156;-84
2022/10/11 08:33:19;;;;;;;;;;;;;;;14.37;100.00;98912.33;1698267;82;26120;-85
2022/10/11 08:35:46;;;;;;;;;;;;;;;14.40;100.00;98918.19;1698260;82;24417;-85
2022/10/11 08:38:11;;;;;;;;;;;;;;;14.45;100.00;98921.33;1689751;82;20288;-84
2022/10/11 08:40:46;;;;;;;;;;;;;;;14.47;100.00;98919.87;1702428;82;24788;-88
2022/10/11 08:43:23;;;;;;;;;;;;;;;14.53;100.00;98923.34;1687573;83;21987;-88
2022/10/11 08:45:52;;;;;;;;;;;;;;;14.57;100.00;98923.45;1692431;83;26749;-89
2022/10/11 08:48:22;;;;;;;;;;;;;;;14.61;100.00;98922.28;1702554;82;24554;-88
2022/10/11 08:50:53;;;;;;;;;;;;;;;14.59;100.00;98921.08;1643654;83;20422;-88
2022/10/11 08:53:34;;;;;;;;;;;;;;;14.60;100.00;98924.08;1668568;84;24798;-88
2022/10/11 08:56:00;;;;;;;;;;;;;;;14.64;100.00;98924.66;1669721;83;21527;-84
2022/10/11 08:58:32;;;;;;;;;;;;;;;14.73;100.00;98921.80;1663428;83;21804;-85
2022/10/11 09:00:58;;;;;;;;;;;;;;;14.72;100.00;98930.18;1665575;84;24443;-83
2022/10/11 09:03:40;;;;;;;;;;;;;;;14.71;100.00;98931.61;1670376;83;20304;-83
2022/10/11 09:06:30;;;;;;;;;;;;;;;14.72;100.00;98934.61;1674689;82;25862;-89
2022/10/11 09:09:06;;;;;;;;;;;;;;;14.77;100.00;98935.08;1690230;82;22876;-88
2022/10/11 09:11:50;;;;;;;;;;;;;;;14.81;100.00;98937.34;1729235;82;26029;-88
2022/10/11 09:14:33;;;;;;;;;;;;;;;14.79;100.00;98937.94;1714709;80;24468;-88
2022/10/11 09:17:04;;;;;;;;;;;;;;;14.85;100.00;98936.14;1731885;80;20456;-88
2022/10/11 09:19:49;;;;;;;;;;;;;;;14.96;100.00;98939.23;1668020;83;24924;-88
2022/10/11 09:25:10;;;;;;;;;;;;;;;15.05;100.00;98939.84;1711983;82;26050;-90
2022/10/11 09:27:50;;;;;;;;;;;;;;;15.06;100.00;98940.17;1733065;80;24668;-90
2022/10/11 09:30:17;;;;;;;;;;;;;;;15.06;100.00;98942.81;1727817;80;20172;-91
2022/10/11 09:35:35;;;;;;;;;;;;;;;14.98;100.00;98947.88;1689663;82;22834;-90
2022/10/11 09:38:03;;;;;;;;;;;;;;;14.98;100.00;98949.19;1683997;82;26321;-88
2022/10/11 09:40:39;;;;;;;;;;;;;;;14.95;100.00;98944.98;1683816;81;24309;-84
2022/10/11 09:43:08;;;;;;;;;;;;;;;14.95;100.00;98950.73;1677388;82;20493;-85
2022/10/11 09:45:33;;;;;;;;;;;;;;;14.97;100.00;98948.83;1680503;83;24770;-84
2022/10/11 09:48:01;;;;;;;;;;;;;;;14.98;100.00;98955.30;1679154;82;20246;-85
2022/10/11 09:50:30;;;;;;;;;;;;;;;14.96;100.00;98955.89;1687287;82;26021;-85
2022/10/11 09:52:58;;;;;;;;;;;;;;;14.91;100.00;98956.73;1675846;83;24483;-85
2022/10/11 09:55:32;;;;;;;;;;;;;;;14.87;100.00;98962.38;1693845;82;20252;-85
2022/10/11 09:57:58;;;;;;;;;;;;;;;14.90;100.00;98962.13;1680198;82;24215;-85
2022/10/11 10:00:25;;;;;;;;;;;;;;;14.92;100.00;98961.53;1706501;82;22680;-85
2022/10/11 10:02:52;;;;;;;;;;;;;;;14.91;100.00;98966.44;1658291;84;26687;-85
2022/10/11 10:05:22;;;;;;;;;;;;;;;14.91;100.00;98965.13;1693884;82;24539;-84
2022/10/11 10:08:07;;;;;;;;;;;;;;;14.93;100.00;98972.44;1682361;82;20302;-85
2022/10/11 10:10:34;;;;;;;;;;;;;;;14.99;100.00;98974.59;1689664;83;25461;-85
2022/10/11 10:13:02;;;;;;;;;;;;;;;14.95;100.00;98975.77;1650149;83;22513;-85
2022/10/11 10:15:33;;;;;;;;;;;;;;;14.94;100.00;98971.48;1693307;82;26107;-85
2022/10/11 10:18:00;;;;;;;;;;;;;;;14.98;100.00;98979.50;1692283;83;24444;-85
2022/10/11 10:20:30;;;;;;;;;;;;;;;14.99;100.00;98979.86;1695818;82;20313;-84
2022/10/11 10:22:55;;;;;;;;;;;;;;;14.97;100.00;98983.09;1692487;83;24775;-90
2022/10/11 10:25:30;;;;;;;;;;;;;;;14.95;100.00;98983.20;1700313;82;22117;-89
2022/10/11 10:28:04;;;;;;;;;;;;;;;15.00;100.00;98983.67;1692833;83;26174;-91
2022/10/11 10:30:34;;;;;;;;;;;;;;;15.12;100.00;98988.45;1693084;83;24503;-83
2022/10/11 10:33:07;;;;;;;;;;;;;;;15.20;100.00;98982.59;1693544;82;20220;-88
2022/10/11 10:35:35;;;;;;;;;;;;;;;15.24;100.00;98984.85;1655548;84;25538;-88
2022/10/11 10:38:20;;;;;;;;;;;;;;;15.24;100.00;98989.28;1722659;81;22045;-85
2022/10/11 10:40:48;;;;;;;;;;;;;;;15.22;100.00;98988.08;1722571;80;25975;-85
2022/10/11 10:43:19;;;;;;;;;;;;;;;15.19;100.00;98992.77;1722931;80;26161;-84
2022/10/11 10:45:49;;;;;;;;;;;;;;;15.15;100.00;98995.30;1724607;81;20696;-84
2022/10/11 10:48:17;;;;;;;;;;;;;;;15.11;100.00;98989.92;1719460;80;25347;-83
2022/10/11 10:50:48;;;;;;;;;;;;;;;15.12;100.00;98991.09;1699191;82;21550;-84
2022/10/11 10:53:22;;;;;;;;;;;;;;;15.11;100.00;98998.64;1712632;80;26099;-84
2022/10/11 10:55:49;;;;;;;;;;;;;;;15.09;100.00;98993.98;1713488;80;24596;-88
2022/10/11 10:58:17;;;;;;;;;;;;;;;15.06;100.00;98999.01;1722858;80;20229;-86
2022/10/11 11:00:46;;;;;;;;;;;;;;;15.06;100.00;99002.13;1686878;83;25098;-83
2022/10/11 11:03:19;;;;;;;;;;;;;;;15.07;100.00;99002.48;1691457;82;22016;-89
2022/10/11 11:05:52;;;;;;;;;;;;;;;15.07;100.00;98998.05;1684759;83;26000;-89
2022/10/11 11:08:31;;;;;;;;;;;;;;;15.04;100.00;99000.11;1697633;82;25278;-88
2022/10/11 11:11:08;;;;;;;;;;;;;;;15.01;100.00;98999.85;1696473;82;20494;-90
2022/10/11 11:13:42;;;;;;;;;;;;;;;15.07;100.00;98998.53;1688667;82;24910;-88
2022/10/11 11:16:14;;;;;;;;;;;;;;;15.10;100.00;98992.19;1695962;80;21978;-90
2022/10/11 11:18:56;;;;;;;;;;;;;;;15.07;100.00;98994.58;1667717;83;25979;-89
2022/10/11 11:21:24;;;;;;;;;;;;;;;15.05;100.00;99001.79;1691950;82;24590;-86
2022/10/11 11:24:12;;;;;;;;;;;;;;;15.03;100.00;98995.79;1683357;82;20549;-89
2022/10/11 11:26:52;;;;;;;;;;;;;;;15.08;100.00;98998.42;1672652;82;24826;-85
2022/10/11 11:29:19;;;;;;;;;;;;;;;15.05;100.00;99001.28;1692721;82;22123;-84
2022/10/11 11:32:04;;;;;;;;;;;;;;;15.04;100.00;99008.02;1668422;83;26713;-88
2022/10/11 11:34:41;;;;;;;;;;;;;;;15.12;100.00;99013.50;1687725;83;24542;-84
2022/10/11 11:37:15;;;;;;;;;;;;;;;15.21;100.00;99009.31;1666879;83;20278;-89
2022/10/11 11:39:42;;;;;;;;;;;;;;;15.21;100.00;99006.20;1720981;80;24954;-86
2022/10/11 11:42:10;;;;;;;;;;;;;;;15.21;100.00;99004.88;1713012;82;22230;-86
2022/10/11 11:44:44;;;;;;;;;;;;;;;15.20;100.00;99005.84;1687659;83;26030;-89
2022/10/11 11:47:11;;;;;;;;;;;;;;;15.14;100.00;99008.95;1661702;85;24652;-86
2022/10/11 11:49:39;;;;;;;;;;;;;;;15.19;100.00;99009.43;1694698;82;20228;-88
2022/10/11 11:52:06;;;;;;;;;;;;;;;15.02;100.00;99006.81;1690589;83;24972;-88
2022/10/11 11:54:40;;;;;;;;;;;;;;;14.85;100.00;99016.52;1674047;82;22111;-86
2022/10/11 11:57:19;;;;;;;;;;;;;;;14.71;100.00;99008.86;1672876;83;22297;-83
2022/10/11 11:59:47;;;;;;;;;;;;;;;14.67;100.00;99009.22;1696284;83;24481;-89
2022/10/11 12:02:21;;;;;;;;;;;;;;;14.56;100.00;99005.59;1672745;83;20232;-89
2022/10/11 12:04:48;;;;;;;;;;;;;;;14.65;100.00;99009.33;1666364;83;25371;-87
2022/10/11 12:07:20;;;;;;;;;;;;;;;14.72;100.00;99009.70;1685062;83;22163;-87
2022/10/11 12:09:49;;;;;;;;;;;;;;;14.63;100.00;99012.55;1670415;83;26062;-90
2022/10/11 12:12:32;;;;;;;;;;;;;;;14.56;100.00;99006.91;1667045;84;24513;-86
2022/10/11 12:15:03;;;;;;;;;;;;;;;14.54;100.00;99008.00;1682247;82;20249;-86
2022/10/11 12:17:52;;;;;;;;;;;;;;;14.62;100.00;99005.12;1669566;82;24858;-90
2022/10/11 12:20:23;;;;;;;;;;;;;;;14.68;100.00;99008.23;1679181;82;22137;-90
2022/10/11 12:22:51;;;;;;;;;;;;;;;14.76;100.00;99001.91;1683616;83;26954;-84
2022/10/11 12:25:22;;;;;;;;;;;;;;;14.82;100.00;99004.06;1672576;83;24775;-86
2022/10/11 12:27:50;;;;;;;;;;;;;;;14.88;100.00;99000.48;1683822;83;20341;-86
2022/10/11 12:30:34;;;;;;;;;;;;;;;15.02;100.00;99000.70;1681041;82;24867;-86
2022/10/11 12:33:08;;;;;;;;;;;;;;;15.11;100.00;99004.42;1683383;83;22250;-87
2022/10/11 12:35:36;;;;;;;;;;;;;;;15.24;100.00;99001.98;1631106;85;26014;-87
2022/10/11 12:38:16;;;;;;;;;;;;;;;15.36;100.00;99006.29;1680963;84;24694;-86
2022/10/11 12:40:44;;;;;;;;;;;;;;;15.33;100.00;99002.56;1675420;82;20233;-86
2022/10/11 12:43:30;;;;;;;;;;;;;;;15.42;100.00;99002.32;1693507;83;24887;-89
2022/10/11 12:46:19;;;;;;;;;;;;;;;15.51;100.00;99005.52;1692683;82;21959;-89
2022/10/11 12:48:46;;;;;;;;;;;;;;;15.58;100.00;99003.27;1721708;80;26028;-89
2022/10/11 12:51:31;;;;;;;;;;;;;;;15.46;100.00;98997.98;1718775;80;24305;-89
2022/10/11 12:54:14;;;;;;;;;;;;;;;15.49;100.00;98996.41;1705545;80;20231;-87
2022/10/11 12:56:44;;;;;;;;;;;;;;;15.62;100.00;98997.61;1695940;80;20195;-89
2022/10/11 12:59:12;;;;;;;;;;;;;;;15.77;100.00;98991.55;1717649;80;22081;-86
2022/10/11 13:01:50;;;;;;;;;;;;;;;15.69;100.00;98994.84;1724892;81;26660;-84